createdAt,value
2023-02-21T00:00:24.220Z,10.57
2023-02-21T00:10:44.649Z,10.69
2023-02-21T00:21:06.157Z,10.51
2023-02-21T00:31:26.402Z,10.60
2023-02-21T00:41:48.348Z,10.66
2023-02-21T00:52:09.328Z,10.69
2023-02-21T01:02:31.250Z,10.77
2023-02-21T01:12:51.628Z,10.62
2023-02-21T01:23:12.816Z,10.54
2023-02-21T01:33:32.885Z,10.65
2023-02-21T01:43:54.585Z,10.38
2023-02-21T01:54:15.483Z,10.30
2023-02-21T02:04:36.965Z,10.08
2023-02-21T02:15:16.644Z,9.88
2023-02-21T02:25:46.492Z,9.83
2023-02-21T02:35:54.761Z,9.85
2023-02-21T02:46:01.948Z,9.84
2023-02-21T02:56:09.691Z,9.80
2023-02-21T03:06:25.507Z,9.79
2023-02-21T03:16:34.353Z,9.82
2023-02-21T03:26:39.622Z,9.81
2023-02-21T03:36:44.177Z,9.80
2023-02-21T03:46:46.875Z,9.78
2023-02-21T03:56:51.094Z,9.92
2023-02-21T04:06:53.706Z,10.00
2023-02-21T04:16:57.884Z,9.99
2023-02-21T04:27:00.521Z,10.10
2023-02-21T04:37:04.602Z,10.08
2023-02-21T04:47:07.321Z,10.16
2023-02-21T04:57:11.390Z,10.08
2023-02-21T05:07:14.023Z,10.11
2023-02-21T05:17:18.424Z,10.20
2023-02-21T05:27:23.321Z,10.26
2023-02-21T05:37:29.371Z,10.24
2023-02-21T05:47:34.613Z,10.26
2023-02-21T05:57:40.412Z,10.27
2023-02-21T06:07:44.135Z,10.35
2023-02-21T06:17:48.181Z,10.33
2023-02-21T06:27:50.862Z,10.27
2023-02-21T06:37:54.853Z,10.31
2023-02-21T06:47:57.469Z,10.26
2023-02-21T06:58:01.549Z,10.28
2023-02-21T07:08:04.496Z,10.33
2023-02-21T07:18:08.507Z,10.38
2023-02-21T07:28:12.004Z,10.38
2023-02-21T07:38:22.154Z,10.33
2023-02-21T07:48:25.473Z,10.59
2023-02-21T07:58:29.477Z,10.41
2023-02-21T08:08:32.363Z,10.43
2023-02-21T08:18:36.335Z,10.69
2023-02-21T08:28:39.003Z,10.70
2023-02-21T08:38:42.957Z,10.55
2023-02-21T08:48:45.588Z,10.65
2023-02-21T08:58:49.736Z,10.87
2023-02-21T09:08:52.310Z,11.10
2023-02-21T09:18:58.920Z,10.80
2023-02-21T09:29:01.672Z,10.98
2023-02-21T09:39:06.677Z,10.78
2023-02-21T09:49:14.737Z,10.95
2023-02-21T09:59:18.869Z,11.19
2023-02-21T10:09:28.817Z,11.18
2023-02-21T10:19:36.903Z,11.17
2023-02-21T10:29:46.872Z,11.67
2023-02-21T10:39:54.156Z,11.41
2023-02-21T10:50:02.726Z,11.52
2023-02-21T11:00:10.302Z,11.69
2023-02-21T11:10:29.732Z,11.86
2023-02-21T11:20:33.818Z,11.75
2023-02-21T11:30:39.340Z,11.74
2023-02-21T11:40:51.283Z,11.79
2023-02-21T11:50:55.622Z,11.87
2023-02-21T12:01:06.166Z,11.62
2023-02-21T12:11:22.238Z,11.68
2023-02-21T12:21:52.092Z,11.78
2023-02-21T12:32:11.881Z,11.97
2023-02-21T12:42:37.651Z,12.05
2023-02-21T12:52:50.588Z,12.11
2023-02-21T13:03:02.635Z,12.03
2023-02-21T13:13:12.529Z,11.98
2023-02-21T13:24:00.174Z,12.15
2023-02-21T13:34:04.094Z,12.13
2023-02-21T13:44:11.808Z,12.27
2023-02-21T13:54:22.874Z,12.25
2023-02-21T14:05:02.404Z,12.30
2023-02-21T14:15:09.119Z,12.20
2023-02-21T14:25:18.932Z,12.58
2023-02-21T14:35:33.214Z,12.25
2023-02-21T14:45:50.842Z,12.40
2023-02-21T14:56:27.142Z,12.57
2023-02-21T15:06:33.896Z,12.33
2023-02-21T15:16:37.342Z,12.03
2023-02-21T15:26:41.366Z,11.94
2023-02-21T15:36:44.113Z,11.62
2023-02-21T15:46:51.529Z,11.45
2023-02-21T15:57:09.676Z,11.62
2023-02-21T16:07:20.817Z,11.40
2023-02-21T16:17:28.169Z,11.34
2023-02-21T16:27:32.129Z,11.44
2023-02-21T16:37:34.754Z,11.42
2023-02-21T16:47:38.690Z,10.95
2023-02-21T16:57:41.320Z,10.97
2023-02-21T17:07:45.601Z,11.01
2023-02-21T17:17:53.090Z,11.11
2023-02-21T17:27:57.922Z,10.99
2023-02-21T17:38:01.630Z,10.77
2023-02-21T17:48:06.630Z,10.88
2023-02-21T17:58:09.618Z,10.85
2023-02-21T18:08:13.713Z,10.67
2023-02-21T18:18:16.436Z,10.72
2023-02-21T18:28:20.462Z,10.66
2023-02-21T18:38:23.550Z,10.63
2023-02-21T18:48:27.872Z,10.69
2023-02-21T18:58:30.589Z,10.57
2023-02-21T19:08:34.558Z,10.53
2023-02-21T19:18:37.227Z,10.60
2023-02-21T19:28:41.223Z,10.52
2023-02-21T19:38:43.882Z,10.55
2023-02-21T19:48:48.313Z,10.57
2023-02-21T19:58:52.773Z,10.58
2023-02-21T20:08:57.546Z,10.59
2023-02-21T20:19:00.172Z,10.72
2023-02-21T20:29:05.039Z,10.79
2023-02-21T20:39:18.397Z,10.88
2023-02-21T20:49:22.484Z,10.87
2023-02-21T20:59:27.750Z,10.90
2023-02-21T21:09:34.875Z,10.83
2023-02-21T21:19:37.722Z,10.77
2023-02-21T21:29:43.456Z,10.72
2023-02-21T21:39:46.273Z,10.69
2023-02-21T21:49:50.837Z,10.65
2023-02-21T21:59:53.914Z,10.62
2023-02-21T22:09:57.869Z,10.55
2023-02-21T22:20:00.459Z,10.59
2023-02-21T22:30:04.971Z,10.55
2023-02-21T22:40:09.402Z,10.50
2023-02-21T22:50:15.143Z,10.48
2023-02-21T23:00:21.619Z,10.48
2023-02-21T23:10:28.672Z,10.42
2023-02-21T23:20:31.320Z,10.35
2023-02-21T23:30:40.223Z,10.35
2023-02-21T23:40:43.860Z,10.36
2023-02-21T23:50:48.249Z,10.39
